RJTY/OKO METAR and TAF weather

Enter ICAO airport designator
Station Type Date Time Source
RJTY METAR 2020/09/27 01:11 UTC NOAA

RJTY 270111Z AUTO 18003KT 10SM BKN010 BKN200 19/18 A2989 RMK AO2 SLP123 FZRANO $


Station Type Date Time Source
RJTY Decoded METAR 2020/09/27 01:11 UTC NOAA

Yokota Ab, Japan (RJTY) 35-45N 139-21E 142M
Sep 26, 2020 - 09:11 PM EDT / 2020.09.27 0111 UTC
Wind: from the S (180 degrees) at 3 MPH (3 KT):0
Visibility: 10 mile(s):0
Sky conditions: mostly cloudy
Temperature: 66 F (19 C)
Dew Point: 64 F (18 C)
Relative Humidity: 93%
Pressure (altimeter): 29.89 in. Hg (1012 hPa)
ob: RJTY 270111Z AUTO 18003KT 10SM BKN010 BKN200 19/18 A2989 RMK AO2 SLP123 FZRANO
cycle: 1

Station Type Date Time Source
RJTY TAF 2020/09/26 21:30 UTC NOAA

TAF RJTY 262100Z 2621/2803 01006KT 9999 BKN008 OVC015 QNH2982INS
BECMG 2623/2624 18006KT 6000 -RA BKN012 OVC015 QNH2988INS
BECMG 2703/2704 12006KT 8000 -RA SCT015 BKN030 QNH2990INS
BECMG 2709/2710 30006KT 9000 BR OVC008 QNH2992INS
BECMG 2722/2723 35010G15KT 9999 NSW SCT035 QNH2990INS TX24/2704Z TN16/2721Z

Example: see airport list